Time;durP1;ratioP1;P1;durP2;ratioP2;P2;SDS_P1;SDS_P2;PMS_P1;PMS_P2;Temp;Humidity;BMP_temperature;BMP_pressure;BME280_temperature;BME280_humidity;BME280_pressure;Samples;Min_cycle;Max_cycle;Signal;HPM_P1;HPM_P2
2023/09/13 00:00:10;;;;;;;5.22;2.95;;;;;;;18.11;100.00;95630.09;1030513;28;20031;-75
2023/09/13 00:00:46;;;;;;;3.72;2.38;;;;;;;18.11;100.00;95635.41;1034531;28;20542;-73
2023/09/13 00:01:16;;;;;;;3.25;2.03;;;;;;;18.11;100.00;95632.75;1033906;28;20427;-73
2023/09/13 00:01:47;;;;;;;4.18;2.33;;;;;;;18.10;100.00;95631.16;1030915;28;20033;-73
2023/09/13 00:02:17;;;;;;;6.25;2.30;;;;;;;18.09;100.00;95637.56;1033702;28;20026;-74
2023/09/13 00:02:47;;;;;;;5.38;2.03;;;;;;;18.11;100.00;95645.25;1035207;28;20025;-74
2023/09/13 00:03:18;;;;;;;3.17;2.13;;;;;;;18.05;100.00;95625.25;1043365;28;20029;-74
2023/09/13 00:03:48;;;;;;;4.60;2.28;;;;;;;18.12;100.00;95634.28;1039733;28;20024;-73
2023/09/13 00:04:19;;;;;;;4.05;2.30;;;;;;;18.10;100.00;95639.13;1034893;28;20037;-73
2023/09/13 00:04:50;;;;;;;3.50;2.38;;;;;;;18.05;100.00;95630.56;1027081;28;20015;-74
2023/09/13 00:05:20;;;;;;;3.38;2.55;;;;;;;18.11;100.00;95640.72;1027208;28;20468;-74
2023/09/13 00:05:51;;;;;;;4.07;2.50;;;;;;;18.09;100.00;95634.91;1034575;28;20084;-73
2023/09/13 00:06:21;;;;;;;5.80;2.47;;;;;;;18.03;100.00;95627.41;1037277;28;20026;-74
2023/09/13 00:06:52;;;;;;;4.80;2.40;;;;;;;18.03;100.00;95633.50;1031076;28;20030;-73
2023/09/13 00:07:22;;;;;;;4.25;2.20;;;;;;;18.06;100.00;95632.88;1028798;28;20022;-73
2023/09/13 00:07:53;;;;;;;4.30;2.30;;;;;;;18.07;100.00;95639.75;1030946;28;20015;-74
2023/09/13 00:08:23;;;;;;;3.38;2.53;;;;;;;18.06;100.00;95638.19;1026940;28;20030;-73
2023/09/13 00:08:54;;;;;;;2.50;2.22;;;;;;;18.02;100.00;95633.81;1031829;28;20081;-74
2023/09/13 00:09:24;;;;;;;3.60;2.10;;;;;;;18.04;100.00;95629.78;1034076;28;20090;-73
2023/09/13 00:09:55;;;;;;;2.50;2.13;;;;;;;17.97;100.00;95632.09;1022403;28;20023;-73
2023/09/13 00:10:25;;;;;;;5.47;2.50;;;;;;;18.03;100.00;95643.34;1022749;28;20019;-75
2023/09/13 00:11:05;;;;;;;5.15;2.25;;;;;;;18.03;100.00;95638.03;1023215;28;20762;-73
2023/09/13 00:11:35;;;;;;;4.43;2.67;;;;;;;17.99;100.00;95637.09;1033561;28;20026;-73
2023/09/13 00:12:06;;;;;;;3.25;2.30;;;;;;;18.02;100.00;95642.56;1033553;28;20038;-73
2023/09/13 00:12:36;;;;;;;5.20;2.70;;;;;;;17.99;100.00;95643.19;1035395;28;20067;-73
2023/09/13 00:13:07;;;;;;;4.82;3.25;;;;;;;18.03;100.00;95659.28;1035079;28;20113;-73
2023/09/13 00:13:37;;;;;;;4.20;2.58;;;;;;;18.04;100.00;95650.22;1035185;28;20029;-74
2023/09/13 00:14:08;;;;;;;3.60;2.70;;;;;;;18.02;100.00;95647.88;1040550;28;20022;-73
2023/09/13 00:14:38;;;;;;;5.07;2.38;;;;;;;17.97;100.00;95645.38;1033589;28;20029;-75
2023/09/13 00:15:09;;;;;;;4.03;2.67;;;;;;;18.00;100.00;95655.38;1035201;28;20020;-73
2023/09/13 00:15:43;;;;;;;2.67;2.08;;;;;;;18.00;100.00;95651.94;1030986;28;20058;-74
2023/09/13 00:16:14;;;;;;;3.65;2.63;;;;;;;17.99;100.00;95653.81;1030983;28;20026;-73
2023/09/13 00:16:45;;;;;;;3.85;2.20;;;;;;;18.00;100.00;95663.34;1031193;28;20029;-73
2023/09/13 00:17:16;;;;;;;3.70;2.50;;;;;;;17.99;100.00;95659.13;1036429;28;20025;-73
2023/09/13 00:17:47;;;;;;;3.70;2.00;;;;;;;18.00;100.00;95663.34;1038647;28;20549;-73
2023/09/13 00:18:17;;;;;;;4.88;2.67;;;;;;;17.99;100.00;95661.00;1037226;28;20018;-75
2023/09/13 00:18:48;;;;;;;7.93;2.83;;;;;;;17.96;100.00;95662.41;1035043;28;20022;-73
2023/09/13 00:19:18;;;;;;;3.13;2.60;;;;;;;17.94;100.00;95655.81;1029179;28;20590;-73
2023/09/13 00:19:49;;;;;;;2.92;2.25;;;;;;;17.89;100.00;95648.81;1030308;28;20022;-74
2023/09/13 00:20:19;;;;;;;3.72;2.35;;;;;;;17.92;100.00;95666.78;1026789;28;20019;-73
2023/09/13 00:20:53;;;;;;;2.88;2.28;;;;;;;17.78;100.00;95644.91;1023584;28;20058;-73
2023/09/13 00:21:23;;;;;;;3.15;2.20;;;;;;;17.92;100.00;95669.44;1027279;28;20077;-73
2023/09/13 00:21:54;;;;;;;6.03;2.55;;;;;;;17.92;100.00;95669.44;1030992;28;20030;-73
2023/09/13 00:22:26;;;;;;;4.65;2.88;;;;;;;17.91;100.00;95667.88;1031754;28;20546;-73
2023/09/13 00:22:56;;;;;;;5.10;2.90;;;;;;;17.88;100.00;95663.19;1043161;28;20052;-73
2023/09/13 00:23:27;;;;;;;3.65;2.47;;;;;;;17.85;100.00;95661.91;1036742;28;20534;-73
2023/09/13 00:23:57;;;;;;;4.57;2.33;;;;;;;17.83;100.00;95664.09;1039527;28;20026;-73
2023/09/13 00:24:28;;;;;;;2.67;2.30;;;;;;;17.81;100.00;95660.97;1036063;28;20542;-73
2023/09/13 00:24:58;;;;;;;4.75;2.65;;;;;;;17.80;100.00;95666.59;1030893;28;20023;-73
2023/09/13 00:25:29;;;;;;;3.13;2.45;;;;;;;17.78;100.00;95663.47;1026811;28;20026;-74
2023/09/13 00:25:59;;;;;;;4.80;2.45;;;;;;;17.70;100.00;95661.53;1024128;28;20020;-73
2023/09/13 00:26:30;;;;;;;6.63;2.38;;;;;;;17.70;100.00;95662.31;1027212;28;20046;-73
2023/09/13 00:27:00;;;;;;;4.07;2.60;;;;;;;17.68;100.00;95670.59;1026856;28;20583;-73
2023/09/13 00:27:30;;;;;;;3.15;2.35;;;;;;;17.66;100.00;95662.16;1024694;28;20031;-73
2023/09/13 00:28:01;;;;;;;2.60;2.33;;;;;;;17.64;100.00;95663.59;1034843;28;20066;-73
2023/09/13 00:28:31;;;;;;;3.17;2.28;;;;;;;17.60;100.00;95666.03;1031201;28;20055;-74
2023/09/13 00:29:02;;;;;;;4.80;2.40;;;;;;;17.59;100.00;95666.38;1039105;28;20418;-74
2023/09/13 00:29:35;;;;;;;2.80;2.50;;;;;;;17.55;100.00;95666.22;1035177;28;20061;-73
2023/09/13 00:30:08;;;;;;;21.30;3.05;;;;;;;17.55;100.00;95671.50;1035023;28;20029;-73
2023/09/13 00:30:39;;;;;;;3.67;2.60;;;;;;;17.51;100.00;95665.25;1033598;28;20097;-73
2023/09/13 00:31:09;;;;;;;3.40;2.38;;;;;;;17.50;100.00;95669.00;1029835;28;20073;-72
2023/09/13 00:31:40;;;;;;;3.65;2.45;;;;;;;17.49;100.00;95667.44;1030107;28;20150;-73
2023/09/13 00:32:10;;;;;;;5.18;2.40;;;;;;;17.49;100.00;95667.44;1030660;28;20022;-73
2023/09/13 00:32:41;;;;;;;3.22;2.55;;;;;;;17.46;100.00;95673.34;1026801;28;20027;-74
2023/09/13 00:33:11;;;;;;;3.13;2.20;;;;;;;17.42;100.00;95659.16;1030916;28;20419;-73
2023/09/13 00:33:42;;;;;;;3.85;2.83;;;;;;;17.47;100.00;95668.81;1026941;28;20067;-74
2023/09/13 00:34:12;;;;;;;4.78;2.70;;;;;;;17.45;100.00;95666.50;1035102;28;20633;-73
2023/09/13 00:34:43;;;;;;;5.43;2.78;;;;;;;17.45;100.00;95671.78;1037880;28;20111;-72
2023/09/13 00:35:13;;;;;;;7.68;2.90;;;;;;;17.45;100.00;95671.78;1041718;28;20060;-73
2023/09/13 00:35:43;;;;;;;4.88;2.70;;;;;;;17.42;100.00;95673.19;1035665;28;20030;-73
2023/09/13 00:36:14;;;;;;;6.60;2.92;;;;;;;17.41;100.00;95670.84;1038003;28;20490;-76
2023/09/13 00:36:44;;;;;;;3.78;2.45;;;;;;;17.39;100.00;95676.44;1035794;28;20024;-73
2023/09/13 00:37:15;;;;;;;3.50;2.00;;;;;;;17.38;100.00;95672.25;1036343;28;20030;-73
2023/09/13 00:37:45;;;;;;;5.03;2.90;;;;;;;17.39;100.00;95667.72;1035099;28;20022;-73
2023/09/13 00:38:16;;;;;;;4.03;3.05;;;;;;;17.39;100.00;95670.38;1039118;28;20033;-74
2023/09/13 00:38:46;;;;;;;4.35;2.45;;;;;;;17.35;100.00;95664.13;1035075;28;20022;-73
2023/09/13 00:39:17;;;;;;;5.32;2.80;;;;;;;17.39;100.00;95675.66;1025638;28;20035;-73
2023/09/13 00:39:47;;;;;;;3.63;2.53;;;;;;;17.40;100.00;95669.28;1029056;28;20580;-74
2023/09/13 00:40:18;;;;;;;5.03;2.90;;;;;;;17.38;100.00;95677.53;1025454;28;20042;-73
2023/09/13 00:40:48;;;;;;;2.72;2.13;;;;;;;17.38;100.00;95661.63;1026849;28;20421;-74
2023/09/13 00:41:19;;;;;;;3.67;2.58;;;;;;;17.41;100.00;95666.31;1023759;28;20526;-73
2023/09/13 00:41:50;;;;;;;4.45;2.88;;;;;;;17.44;100.00;95670.25;1026932;28;20019;-74
2023/09/13 00:42:20;;;;;;;4.32;2.50;;;;;;;17.41;100.00;95665.56;1030831;28;20022;-73
2023/09/13 00:42:50;;;;;;;4.95;2.58;;;;;;;17.42;100.00;95664.44;1034989;28;20026;-71
2023/09/13 00:43:21;;;;;;;2.97;2.40;;;;;;;17.47;100.00;95669.63;1026697;28;20023;-73
2023/09/13 00:43:52;;;;;;;3.85;2.50;;;;;;;17.49;100.00;95672.75;1026850;28;20027;-74
2023/09/13 00:44:23;;;;;;;4.10;2.58;;;;;;;17.50;100.00;95673.50;1027318;28;20085;-73
2023/09/13 00:44:53;;;;;;;3.25;2.63;;;;;;;17.49;100.00;95664.78;1028232;28;20623;-73
2023/09/13 00:45:24;;;;;;;3.67;2.47;;;;;;;17.52;100.00;95671.34;1027268;28;20404;-73
2023/09/13 00:45:54;;;;;;;4.85;2.45;;;;;;;17.53;100.00;95675.56;1031040;28;20030;-74
2023/09/13 00:46:25;;;;;;;4.00;2.90;;;;;;;17.55;100.00;95670.72;1027163;28;20023;-73
2023/09/13 00:46:56;;;;;;;4.10;2.65;;;;;;;17.56;100.00;95678.38;1023115;28;20019;-73
2023/09/13 00:47:26;;;;;;;3.80;2.67;;;;;;;17.57;100.00;95679.97;1025326;28;20037;-73
2023/09/13 00:47:56;;;;;;;3.58;2.50;;;;;;;17.58;100.00;95681.50;1022938;29;20023;-73
2023/09/13 00:48:28;;;;;;;6.43;2.90;;;;;;;17.56;100.00;95675.72;1029628;28;20518;-73
2023/09/13 00:48:59;;;;;;;3.90;2.70;;;;;;;17.55;100.00;95676.81;1037650;28;20403;-73
2023/09/13 00:49:29;;;;;;;6.95;2.80;;;;;;;17.54;100.00;95679.75;1034641;28;20022;-75
2023/09/13 00:50:00;;;;;;;5.20;2.60;;;;;;;17.55;100.00;95681.34;1034377;28;20478;-73
2023/09/13 00:50:30;;;;;;;3.47;2.60;;;;;;;17.53;100.00;95684.28;1030759;28;20690;-74
2023/09/13 00:51:01;;;;;;;3.33;2.63;;;;;;;17.52;100.00;95682.75;1026906;28;20027;-73
2023/09/13 00:51:31;;;;;;;2.80;2.42;;;;;;;17.50;100.00;95684.13;1028613;28;20666;-74
2023/09/13 00:52:02;;;;;;;5.15;2.67;;;;;;;17.47;100.00;95682.91;1030904;28;20419;-74
2023/09/13 00:52:32;;;;;;;4.10;2.72;;;;;;;17.41;100.00;95681.47;1038704;28;20076;-74
2023/09/13 00:53:05;;;;;;;4.32;3.00;;;;;;;17.47;100.00;95687.41;1035043;28;20188;-73
2023/09/13 00:53:36;;;;;;;4.78;3.28;;;;;;;17.39;100.00;95675.66;1025111;28;20094;-74
2023/09/13 00:54:06;;;;;;;3.63;2.47;;;;;;;17.44;100.00;95691.47;1025648;28;20018;-73
2023/09/13 00:54:37;;;;;;;4.05;2.83;;;;;;;17.41;100.00;95681.47;1030846;28;20034;-73
2023/09/13 00:55:07;;;;;;;4.70;2.72;;;;;;;17.43;100.00;95687.22;1032628;28;20018;-74
2023/09/13 00:55:38;;;;;;;4.18;2.92;;;;;;;17.39;100.00;95688.94;1033141;28;20032;-72
2023/09/13 00:56:11;;;;;;;4.75;2.90;;;;;;;17.43;100.00;95692.53;1027561;28;20080;-73
2023/09/13 00:56:41;;;;;;;4.55;2.80;;;;;;;17.39;100.00;95694.25;1030134;28;20097;-72
2023/09/13 00:57:12;;;;;;;4.07;2.85;;;;;;;17.39;100.00;95696.91;1031142;28;20383;-72
2023/09/13 00:57:42;;;;;;;4.40;2.78;;;;;;;17.35;100.00;95688.78;1035657;28;20092;-73
2023/09/13 00:58:13;;;;;;;3.85;3.15;;;;;;;17.32;100.00;95689.38;1038926;28;20032;-72
2023/09/13 00:58:44;;;;;;;3.88;2.60;;;;;;;17.34;100.00;95697.03;1035471;28;20021;-74
2023/09/13 00:59:14;;;;;;;5.13;2.90;;;;;;;17.32;100.00;95699.22;1038805;28;20037;-73
2023/09/13 00:59:45;;;;;;;3.60;2.63;;;;;;;17.23;100.00;95685.91;1037457;28;20029;-73
2023/09/13 01:00:16;;;;;;;3.83;2.95;;;;;;;17.30;100.00;95696.06;1038743;28;20052;-73
2023/09/13 01:00:53;;;;;;;4.47;3.08;;;;;;;17.31;100.00;95700.31;1034991;28;20029;-73
2023/09/13 01:01:23;;;;;;;6.22;3.10;;;;;;;17.29;100.00;95694.53;1030621;28;20058;-74
2023/09/13 01:01:54;;;;;;;4.53;2.88;;;;;;;17.29;100.00;95694.53;1026873;28;20620;-73
2023/09/13 01:02:24;;;;;;;7.95;3.22;;;;;;;17.26;100.00;95695.91;1026607;28;20041;-73
2023/09/13 01:02:55;;;;;;;8.25;3.05;;;;;;;17.23;100.00;95687.78;1026787;28;20715;-73
2023/09/13 01:03:25;;;;;;;3.00;2.20;;;;;;;17.25;100.00;95690.91;1027710;28;20031;-74
2023/09/13 01:03:56;;;;;;;4.95;2.95;;;;;;;17.21;100.00;95682.78;1026756;28;20023;-72
2023/09/13 01:04:27;;;;;;;6.32;3.40;;;;;;;17.25;100.00;95691.69;1023803;28;20023;-73
2023/09/13 01:04:57;;;;;;;4.20;3.00;;;;;;;17.24;100.00;95692.00;1030304;28;20502;-74
2023/09/13 01:05:28;;;;;;;6.85;2.85;;;;;;;17.26;100.00;95689.81;1032362;28;20054;-74
2023/09/13 01:05:58;;;;;;;3.95;2.88;;;;;;;17.22;100.00;95688.88;1039200;28;20033;-74
2023/09/13 01:06:29;;;;;;;5.18;3.03;;;;;;;17.25;100.00;95693.56;1033156;28;20033;-73
2023/09/13 01:06:59;;;;;;;3.90;2.88;;;;;;;17.26;100.00;95692.47;1022827;28;20571;-73
2023/09/13 01:07:30;;;;;;;3.95;2.70;;;;;;;17.12;100.00;95669.50;1032288;28;20026;-73
2023/09/13 01:08:00;;;;;;;4.70;3.05;;;;;;;17.26;100.00;95684.53;1027870;28;20034;-74
2023/09/13 01:08:31;;;;;;;4.25;2.67;;;;;;;17.25;100.00;95682.97;1026602;28;20447;-73
2023/09/13 01:09:04;;;;;;;5.10;2.80;;;;;;;17.26;100.00;95684.53;1026853;28;20042;-73
2023/09/13 01:09:34;;;;;;;4.55;2.88;;;;;;;17.23;100.00;95685.13;1027711;28;20554;-73
2023/09/13 01:10:05;;;;;;;4.40;3.17;;;;;;;17.25;100.00;95682.97;1038459;28;20021;-73
2023/09/13 01:10:36;;;;;;;4.05;3.03;;;;;;;17.14;100.00;95667.31;1033178;28;20038;-74
2023/09/13 01:11:06;;;;;;;5.13;2.95;;;;;;;17.18;100.00;95673.56;1030829;28;20416;-73
2023/09/13 01:11:37;;;;;;;4.05;2.83;;;;;;;17.23;100.00;95680.59;1036094;28;20100;-75
2023/09/13 01:12:07;;;;;;;3.67;2.88;;;;;;;17.25;100.00;95688.25;1038957;28;20076;-73
2023/09/13 01:12:38;;;;;;;3.63;2.80;;;;;;;17.26;100.00;95685.28;1036134;28;20029;-72
2023/09/13 01:13:08;;;;;;;6.35;2.83;;;;;;;17.27;100.00;95686.06;1024393;28;20082;-73
2023/09/13 01:13:39;;;;;;;3.63;2.70;;;;;;;17.27;100.00;95684.22;1033577;28;20594;-73
2023/09/13 01:14:09;;;;;;;6.68;3.08;;;;;;;17.23;100.00;95671.88;1038969;28;20025;-72
2023/09/13 01:14:40;;;;;;;4.38;2.78;;;;;;;17.28;100.00;95680.47;1034488;28;20113;-73
2023/09/13 01:15:10;;;;;;;5.45;3.30;;;;;;;17.23;100.00;95675.28;1034833;28;20495;-73
2023/09/13 01:16:03;;;;;;;4.72;2.88;;;;;;;17.31;100.00;95687.81;1030785;28;20034;-74
2023/09/13 01:16:48;;;;;;;3.50;2.60;;;;;;;17.27;100.00;95686.88;1035176;28;20029;-72
2023/09/13 01:17:40;;;;;;;4.75;3.22;;;;;;;17.30;100.00;95686.25;1035534;28;20025;-75
2023/09/13 01:18:21;;;;;;;3.83;2.72;;;;;;;17.29;100.00;95683.91;1031463;28;20042;-74
2023/09/13 01:19:13;;;;;;;3.22;2.72;;;;;;;17.25;100.00;95675.78;1034988;28;20029;-72
2023/09/13 01:20:01;;;;;;;4.72;2.80;;;;;;;17.28;100.00;95683.13;1034445;28;20029;-73
2023/09/13 01:20:46;;;;;;;4.05;2.78;;;;;;;17.30;100.00;95688.91;1033639;28;20553;-72
2023/09/13 01:21:34;;;;;;;3.90;2.60;;;;;;;17.27;100.00;95684.22;1033542;28;20018;-73
2023/09/13 01:22:16;;;;;;;7.25;2.75;;;;;;;17.30;100.00;95682.81;1034806;28;20040;-74
2023/09/13 01:23:06;;;;;;;4.38;2.60;;;;;;;17.29;100.00;95689.22;1033985;28;20022;-72
2023/09/13 01:24:04;;;;;;;6.38;2.80;;;;;;;17.30;100.00;95685.47;1028072;28;20030;-74
2023/09/13 01:24:56;;;;;;;3.55;2.58;;;;;;;17.29;100.00;95683.91;1031049;28;20053;-73
2023/09/13 01:25:58;;;;;;;5.18;2.78;;;;;;;17.26;100.00;95684.53;1032734;28;20679;-74
2023/09/13 01:26:42;;;;;;;4.82;2.47;;;;;;;17.22;100.00;95678.25;1037542;28;20022;-74
2023/09/13 01:27:45;;;;;;;2.80;2.50;;;;;;;17.28;100.00;95688.44;1036716;28;20030;-71
2023/09/13 01:28:37;;;;;;;2.95;2.40;;;;;;;17.29;100.00;95691.88;1032912;28;20041;-74
2023/09/13 01:29:09;;;;;;;2.78;2.25;;;;;;;17.31;100.00;95698.44;1037840;28;20021;-76
2023/09/13 01:29:40;;;;;;;4.60;2.50;;;;;;;17.26;100.00;95684.53;1029785;28;20066;-74
2023/09/13 01:30:10;;;;;;;4.13;2.80;;;;;;;17.28;100.00;95690.31;1031859;28;20046;-73
2023/09/13 01:30:41;;;;;;;3.42;2.60;;;;;;;17.31;100.00;95687.81;1027648;28;20077;-73
2023/09/13 01:31:12;;;;;;;3.72;2.85;;;;;;;17.35;100.00;95694.06;1018672;29;20102;-73
2023/09/13 01:31:42;;;;;;;5.07;3.08;;;;;;;17.35;100.00;95693.28;1029978;28;20030;-74
2023/09/13 01:32:13;;;;;;;3.20;2.70;;;;;;;17.37;100.00;95691.09;1034788;28;20040;-73
2023/09/13 01:32:44;;;;;;;5.63;3.05;;;;;;;17.21;100.00;95661.56;1025912;28;20468;-73
2023/09/13 01:33:15;;;;;;;4.05;2.75;;;;;;;17.39;100.00;95699.53;1022659;29;20089;-72
2023/09/13 01:33:45;;;;;;;7.22;2.67;;;;;;;17.38;100.00;95688.16;1022603;29;20105;-73
2023/09/13 01:34:16;;;;;;;3.97;2.70;;;;;;;17.38;100.00;95688.16;1026980;28;20030;-74
2023/09/13 01:34:46;;;;;;;3.38;2.63;;;;;;;17.38;100.00;95690.81;1026792;28;20496;-73
2023/09/13 01:35:17;;;;;;;4.38;2.55;;;;;;;17.37;100.00;95689.25;1030442;28;20018;-72
2023/09/13 01:35:47;;;;;;;3.15;2.60;;;;;;;17.37;100.00;95689.25;1026572;28;20031;-73
2023/09/13 01:36:18;;;;;;;3.13;2.50;;;;;;;17.37;100.00;95691.09;1026759;28;20062;-73
2023/09/13 01:36:48;;;;;;;5.18;2.65;;;;;;;17.36;100.00;95686.91;1026635;28;20027;-73
2023/09/13 01:37:18;;;;;;;2.88;2.45;;;;;;;17.36;100.00;95694.84;1030739;28;20650;-75
2023/09/13 01:37:49;;;;;;;3.42;2.72;;;;;;;17.30;100.00;95688.13;1030668;28;20125;-73
2023/09/13 01:38:19;;;;;;;6.10;2.45;;;;;;;17.34;100.00;95691.75;1026600;28;20034;-73
2023/09/13 01:38:50;;;;;;;3.28;2.25;;;;;;;17.26;100.00;95684.53;1030650;28;20057;-72
2023/09/13 01:39:20;;;;;;;3.55;2.80;;;;;;;17.31;100.00;95692.34;1026520;28;20443;-73
2023/09/13 01:39:51;;;;;;;3.65;2.53;;;;;;;17.32;100.00;95691.25;1022038;28;20038;-73
2023/09/13 01:40:21;;;;;;;3.40;2.42;;;;;;;17.31;100.00;95697.66;1023976;28;20023;-74
2023/09/13 01:40:52;;;;;;;4.03;2.90;;;;;;;17.24;100.00;95684.06;1022853;29;20027;-73
2023/09/13 01:41:44;;;;;;;3.65;2.78;;;;;;;17.20;100.00;95687.31;1030523;28;20048;-72
2023/09/13 01:42:15;;;;;;;3.78;2.50;;;;;;;17.22;100.00;95697.59;1032454;28;20038;-73
2023/09/13 01:42:46;;;;;;;3.80;2.45;;;;;;;17.22;100.00;95696.84;1036724;28;20532;-73
2023/09/13 01:43:16;;;;;;;4.88;2.67;;;;;;;17.13;100.00;95680.88;1034801;28;20030;-73
2023/09/13 01:43:47;;;;;;;4.95;2.97;;;;;;;17.20;100.00;95697.94;1033233;28;20033;-73
2023/09/13 01:44:17;;;;;;;4.97;2.95;;;;;;;17.16;100.00;95694.28;1034836;28;20404;-74
2023/09/13 01:44:48;;;;;;;3.55;2.85;;;;;;;17.17;100.00;95693.22;1029137;28;20026;-72
2023/09/13 01:45:18;;;;;;;4.55;2.78;;;;;;;17.13;100.00;95686.16;1025992;28;20023;-73
2023/09/13 01:45:48;;;;;;;3.50;2.40;;;;;;;17.14;100.00;95688.53;1030569;28;20022;-73
2023/09/13 01:46:19;;;;;;;4.63;2.78;;;;;;;17.10;100.00;95692.88;1022720;28;20520;-73
2023/09/13 01:46:50;;;;;;;4.35;2.97;;;;;;;17.02;100.00;95690.19;1026849;28;20105;-73
2023/09/13 01:47:20;;;;;;;3.17;2.22;;;;;;;17.04;100.00;95683.50;1034474;28;20033;-73
2023/09/13 01:47:51;;;;;;;4.13;2.53;;;;;;;17.06;100.00;95689.25;1034674;28;20029;-73
2023/09/13 01:48:21;;;;;;;4.63;2.45;;;;;;;16.99;100.00;95677.53;1026895;28;20031;-72
2023/09/13 01:48:51;;;;;;;7.35;2.85;;;;;;;17.02;100.00;95690.97;1032104;28;20427;-72
2023/09/13 01:49:22;;;;;;;3.97;2.55;;;;;;;17.05;100.00;95693.00;1029836;28;20098;-72
2023/09/13 01:49:52;;;;;;;5.03;3.20;;;;;;;17.06;100.00;95699.88;1025922;28;20404;-73
2023/09/13 01:50:23;;;;;;;4.35;2.95;;;;;;;16.98;100.00;95686.59;1022997;28;20067;-74
2023/09/13 01:50:53;;;;;;;3.25;2.50;;;;;;;17.02;100.00;95696.25;1022617;29;20551;-73
2023/09/13 01:51:25;;;;;;;4.78;2.35;;;;;;;17.02;100.00;95701.56;1022563;29;20030;-75
2023/09/13 01:51:55;;;;;;;4.15;2.80;;;;;;;17.00;100.00;95698.47;1022634;28;20600;-74
2023/09/13 01:52:26;;;;;;;5.40;3.00;;;;;;;16.97;100.00;95707.00;1030402;28;20018;-72
2023/09/13 01:52:56;;;;;;;4.60;2.95;;;;;;;16.98;100.00;95702.50;1038826;28;20022;-73
2023/09/13 01:53:27;;;;;;;6.35;2.47;;;;;;;16.94;100.00;95697.00;1034628;28;20049;-73
2023/09/13 01:53:57;;;;;;;4.25;2.25;;;;;;;16.96;100.00;95702.78;1030614;28;20400;-74
2023/09/13 01:54:28;;;;;;;3.13;2.70;;;;;;;16.95;100.00;95701.22;1033385;28;20038;-74
2023/09/13 01:54:58;;;;;;;3.67;2.55;;;;;;;16.94;100.00;95700.44;1026843;28;20066;-73
2023/09/13 01:55:30;;;;;;;3.72;2.70;;;;;;;16.95;100.00;95712.59;1036032;28;20033;-73
2023/09/13 01:56:00;;;;;;;6.35;2.85;;;;;;;16.82;100.00;95689.59;1034614;28;20021;-74
2023/09/13 01:56:31;;;;;;;3.92;2.75;;;;;;;16.86;100.00;95698.50;1034507;28;20033;-73
2023/09/13 01:57:01;;;;;;;4.68;2.65;;;;;;;16.87;100.00;95699.31;1033938;28;20026;-73
2023/09/13 01:57:32;;;;;;;8.32;3.08;;;;;;;16.85;100.00;95707.56;1029786;28;20033;-74
2023/09/13 01:58:03;;;;;;;5.57;2.92;;;;;;;16.82;100.00;95705.50;1030560;28;20018;-73
2023/09/13 01:58:33;;;;;;;6.13;2.45;;;;;;;16.79;100.00;95697.38;1030435;28;20700;-73
2023/09/13 01:59:04;;;;;;;4.60;2.58;;;;;;;16.62;100.00;95680.25;1030481;28;20609;-74
2023/09/13 01:59:35;;;;;;;4.55;3.00;;;;;;;16.75;100.00;95699.06;1030394;28;20022;-73
2023/09/13 02:00:06;;;;;;;5.65;2.85;;;;;;;16.66;100.00;95688.38;1025900;28;20011;-74
2023/09/13 02:00:37;;;;;;;2.72;2.45;;;;;;;16.78;100.00;95709.06;1028790;28;20019;-74
2023/09/13 02:01:07;;;;;;;4.53;2.72;;;;;;;16.77;100.00;95705.66;1023335;28;20187;-73
2023/09/13 02:01:37;;;;;;;5.03;3.13;;;;;;;16.76;100.00;95705.94;1030613;28;20037;-73
2023/09/13 02:02:08;;;;;;;11.05;3.20;;;;;;;16.73;100.00;95700.13;1034724;28;20164;-74
2023/09/13 02:02:38;;;;;;;4.28;2.92;;;;;;;16.72;100.00;95711.03;1038500;28;20433;-74
2023/09/13 02:03:09;;;;;;;4.55;2.85;;;;;;;16.74;100.00;95711.53;1038742;28;20021;-73
2023/09/13 02:03:39;;;;;;;4.18;2.58;;;;;;;16.72;100.00;95703.84;1038676;28;20029;-72
2023/09/13 02:04:10;;;;;;;3.42;2.60;;;;;;;16.71;100.00;95715.53;1034774;28;20664;-74
2023/09/13 02:04:40;;;;;;;3.47;2.90;;;;;;;16.69;100.00;95704.47;1034331;28;20084;-73
2023/09/13 02:05:10;;;;;;;4.43;3.00;;;;;;;16.67;100.00;95706.66;1038831;28;20013;-73
2023/09/13 02:05:41;;;;;;;4.47;3.15;;;;;;;16.71;100.00;95710.25;1035625;28;20029;-74
2023/09/13 02:06:14;;;;;;;3.75;2.70;;;;;;;16.75;100.00;95712.31;1034965;28;20026;-74
2023/09/13 02:06:45;;;;;;;4.78;3.25;;;;;;;16.76;100.00;95713.88;1042113;28;20032;-72
2023/09/13 02:07:20;;;;;;;3.78;2.80;;;;;;;16.79;100.00;95710.63;1039191;28;20438;-73
2023/09/13 02:07:50;;;;;;;4.82;3.17;;;;;;;16.80;100.00;95705.03;1039272;28;20383;-73
2023/09/13 02:08:21;;;;;;;3.85;2.55;;;;;;;16.81;100.00;95708.47;1042514;28;20032;-73
2023/09/13 02:08:51;;;;;;;4.55;2.80;;;;;;;16.80;100.00;95710.34;1034657;28;20100;-74
2023/09/13 02:09:22;;;;;;;4.00;3.05;;;;;;;16.80;100.00;95714.84;1034990;28;20481;-73
2023/09/13 02:09:53;;;;;;;5.78;3.00;;;;;;;16.82;100.00;95710.03;1036709;28;20033;-73
2023/09/13 02:10:24;;;;;;;4.43;3.00;;;;;;;16.82;100.00;95712.69;1034144;28;20087;-76
2023/09/13 02:10:54;;;;;;;4.57;3.13;;;;;;;16.85;100.00;95712.06;1030831;28;20037;-72
2023/09/13 02:11:25;;;;;;;3.40;2.60;;;;;;;16.83;100.00;95714.25;1031232;28;20495;-73
2023/09/13 02:11:55;;;;;;;4.80;2.40;;;;;;;16.84;100.00;95716.59;1030683;28;20093;-73
2023/09/13 02:12:26;;;;;;;3.22;2.70;;;;;;;16.85;100.00;95712.84;1030554;28;20022;-73
2023/09/13 02:12:58;;;;;;;4.35;2.92;;;;;;;16.82;100.00;95715.31;1034707;28;20065;-73
2023/09/13 02:13:29;;;;;;;3.80;2.90;;;;;;;16.85;100.00;95723.47;1028160;28;20022;-75
2023/09/13 02:13:59;;;;;;;8.43;3.40;;;;;;;16.87;100.00;95723.16;1035009;28;20034;-74
2023/09/13 02:14:30;;;;;;;5.30;3.22;;;;;;;16.86;100.00;95722.38;1026524;28;20033;-73
2023/09/13 02:15:00;;;;;;;5.13;2.90;;;;;;;16.86;100.00;95722.38;1026342;28;20622;-73
2023/09/13 02:15:31;;;;;;;4.60;2.78;;;;;;;16.87;100.00;95725.81;1028167;28;20034;-73
2023/09/13 02:16:01;;;;;;;8.05;3.08;;;;;;;16.85;100.00;95722.69;1034862;28;20029;-73
2023/09/13 02:16:32;;;;;;;8.55;2.88;;;;;;;16.87;100.00;95728.47;1038333;28;20091;-73
2023/09/13 02:17:03;;;;;;;5.03;2.60;;;;;;;16.86;100.00;95724.22;1034472;28;20084;-74
2023/09/13 02:17:33;;;;;;;4.05;2.90;;;;;;;16.88;100.00;95732.69;1032558;28;20026;-73
2023/09/13 02:18:04;;;;;;;6.75;2.80;;;;;;;16.87;100.00;95729.25;1034868;28;20120;-74
2023/09/13 02:18:34;;;;;;;6.63;2.80;;;;;;;16.88;100.00;95730.03;1034170;28;20682;-75
2023/09/13 02:19:05;;;;;;;3.25;2.50;;;;;;;16.83;100.00;95725.63;1026704;28;20534;-73
2023/09/13 02:19:36;;;;;;;6.88;3.10;;;;;;;16.91;100.00;95729.44;1026440;28;20034;-73
2023/09/13 02:20:07;;;;;;;3.55;2.70;;;;;;;16.89;100.00;95728.94;1025874;28;20027;-74
2023/09/13 02:20:37;;;;;;;4.28;2.58;;;;;;;16.86;100.00;95730.31;1033460;28;20442;-73
2023/09/13 02:21:09;;;;;;;3.85;2.58;;;;;;;16.94;100.00;95736.78;1034426;28;20037;-73
2023/09/13 02:21:40;;;;;;;7.25;3.05;;;;;;;16.92;100.00;95733.63;1034382;28;20747;-72
2023/09/13 02:22:11;;;;;;;4.45;2.67;;;;;;;16.94;100.00;95732.25;1034596;28;20049;-73
2023/09/13 02:22:41;;;;;;;5.28;2.90;;;;;;;16.95;100.00;95730.38;1033836;28;20081;-72
2023/09/13 02:23:12;;;;;;;4.13;2.60;;;;;;;16.95;100.00;95738.34;1033048;28;20033;-72
2023/09/13 02:23:43;;;;;;;4.78;2.90;;;;;;;16.91;100.00;95727.56;1029824;28;20030;-74
2023/09/13 02:24:13;;;;;;;3.13;2.47;;;;;;;16.98;100.00;95732.44;1037586;28;20017;-72
2023/09/13 02:24:44;;;;;;;3.63;2.92;;;;;;;16.97;100.00;95728.22;1037126;28;20026;-73
2023/09/13 02:25:16;;;;;;;4.20;2.80;;;;;;;17.00;100.00;95735.56;1034732;28;20025;-74
2023/09/13 02:25:47;;;;;;;4.22;2.70;;;;;;;16.97;100.00;95725.56;1030884;28;20533;-74
2023/09/13 02:26:23;;;;;;;6.25;2.90;;;;;;;17.04;100.00;95738.41;1030521;28;20057;-73
2023/09/13 02:26:56;;;;;;;7.03;2.83;;;;;;;17.00;100.00;95730.25;1028941;28;20035;-71
2023/09/13 02:27:27;;;;;;;4.63;2.80;;;;;;;17.04;100.00;95733.88;1030682;28;20026;-72
2023/09/13 02:27:57;;;;;;;4.95;2.88;;;;;;;17.06;100.00;95739.63;1030932;28;20041;-73
2023/09/13 02:28:28;;;;;;;6.60;2.83;;;;;;;17.06;100.00;95736.22;1033501;28;20490;-73